createdAt,value
2024-02-10T00:01:26.431Z,100.00
2024-02-10T00:05:39.549Z,100.00
2024-02-10T00:09:52.215Z,100.00
2024-02-10T00:14:04.884Z,100.00
2024-02-10T00:18:21.169Z,100.00
2024-02-10T00:22:33.772Z,100.00
2024-02-10T00:26:47.714Z,100.00
2024-02-10T00:31:01.893Z,100.00
2024-02-10T00:35:14.414Z,100.00
2024-02-10T00:39:26.964Z,100.00
2024-02-10T00:43:44.777Z,100.00
2024-02-10T00:47:57.889Z,100.00
2024-02-10T00:52:10.927Z,100.00
2024-02-10T00:56:23.734Z,100.00
2024-02-10T01:00:38.448Z,100.00
2024-02-10T01:04:51.667Z,100.00
2024-02-10T01:09:04.345Z,100.00
2024-02-10T01:13:16.947Z,100.00
2024-02-10T01:17:29.491Z,100.00
2024-02-10T01:21:42.102Z,100.00
2024-02-10T01:25:54.760Z,100.00
2024-02-10T01:30:09.336Z,100.00
2024-02-10T01:34:21.880Z,100.00
2024-02-10T01:38:46.825Z,100.00
2024-02-10T01:42:59.409Z,100.00
2024-02-10T01:47:13.781Z,100.00
2024-02-10T01:51:26.575Z,100.00
2024-02-10T01:55:39.461Z,100.00
2024-02-10T01:59:53.960Z,100.00
2024-02-10T02:04:10.437Z,100.00
2024-02-10T02:08:23.128Z,100.00
2024-02-10T02:12:35.644Z,100.00
2024-02-10T02:16:48.644Z,100.00
2024-02-10T02:21:01.900Z,100.00
2024-02-10T02:25:14.597Z,100.00
2024-02-10T02:29:27.078Z,100.00
2024-02-10T02:33:40.608Z,100.00
2024-02-10T02:37:54.705Z,100.00
2024-02-10T02:42:07.681Z,100.00
2024-02-10T02:46:20.370Z,100.00
2024-02-10T02:50:33.513Z,100.00
2024-02-10T02:54:46.144Z,100.00
2024-02-10T02:58:59.052Z,100.00
2024-02-10T03:03:11.561Z,100.00
2024-02-10T03:07:24.603Z,100.00
2024-02-10T03:11:38.277Z,100.00
2024-02-10T03:15:50.754Z,100.00
2024-02-10T03:20:03.355Z,100.00
2024-02-10T03:24:15.842Z,100.00
2024-02-10T03:28:28.302Z,100.00
2024-02-10T03:32:40.895Z,100.00
2024-02-10T03:36:53.394Z,100.00
2024-02-10T03:41:06.192Z,100.00
2024-02-10T03:45:20.418Z,100.00
2024-02-10T03:49:33.021Z,100.00
2024-02-10T03:53:45.582Z,100.00
2024-02-10T03:58:01.064Z,100.00
2024-02-10T04:02:13.603Z,100.00
2024-02-10T04:06:26.151Z,100.00
2024-02-10T04:10:38.996Z,100.00
2024-02-10T04:14:51.534Z,100.00
2024-02-10T04:19:04.253Z,100.00
2024-02-10T04:23:18.036Z,100.00
2024-02-10T04:27:30.879Z,100.00
2024-02-10T04:31:43.414Z,100.00
2024-02-10T04:35:56.009Z,100.00
2024-02-10T04:40:09.328Z,100.00
2024-02-10T04:44:22.326Z,100.00
2024-02-10T04:48:34.858Z,100.00
2024-02-10T04:52:48.094Z,100.00
2024-02-10T04:57:00.894Z,100.00
2024-02-10T05:01:14.166Z,100.00
2024-02-10T05:05:27.095Z,100.00
2024-02-10T05:09:40.924Z,100.00
2024-02-10T05:13:53.460Z,100.00
2024-02-10T05:18:07.156Z,100.00
2024-02-10T05:22:20.701Z,100.00
2024-02-10T05:26:38.378Z,100.00
2024-02-10T05:30:52.487Z,100.00
2024-02-10T05:35:05.526Z,100.00
2024-02-10T05:39:22.054Z,100.00
2024-02-10T05:43:35.022Z,100.00
2024-02-10T05:47:51.712Z,100.00
2024-02-10T05:52:07.385Z,100.00
2024-02-10T05:56:19.938Z,100.00
2024-02-10T06:00:33.769Z,100.00
2024-02-10T06:04:46.466Z,100.00
2024-02-10T06:08:59.328Z,100.00
2024-02-10T06:13:11.882Z,100.00
2024-02-10T06:17:26.253Z,100.00
2024-02-10T06:21:39.451Z,100.00
2024-02-10T06:25:55.486Z,100.00
2024-02-10T06:30:18.981Z,100.00
2024-02-10T06:34:31.546Z,100.00
2024-02-10T06:38:44.215Z,100.00
2024-02-10T06:42:56.752Z,100.00
2024-02-10T06:47:09.317Z,100.00
2024-02-10T06:51:23.688Z,100.00
2024-02-10T06:55:36.318Z,100.00
2024-02-10T06:59:49.769Z,100.00
2024-02-10T07:04:02.323Z,100.00
2024-02-10T07:08:17.010Z,100.00
2024-02-10T07:12:29.546Z,100.00
2024-02-10T07:16:42.250Z,100.00
2024-02-10T07:20:54.816Z,100.00
2024-02-10T07:25:09.656Z,100.00
2024-02-10T07:29:22.188Z,100.00
2024-02-10T07:33:34.865Z,100.00
2024-02-10T07:37:48.762Z,100.00
2024-02-10T07:42:03.351Z,100.00
2024-02-10T07:46:18.773Z,100.00
2024-02-10T07:50:31.309Z,100.00
2024-02-10T07:54:43.909Z,100.00
2024-02-10T07:59:01.852Z,100.00
2024-02-10T08:03:14.544Z,100.00
2024-02-10T08:07:32.123Z,100.00
2024-02-10T08:11:45.690Z,100.00
2024-02-10T08:16:00.447Z,100.00
2024-02-10T08:20:14.412Z,100.00
2024-02-10T08:24:33.212Z,100.00
2024-02-10T08:28:59.271Z,100.00
2024-02-10T08:33:11.883Z,100.00
2024-02-10T08:37:24.506Z,100.00
2024-02-10T08:41:37.719Z,100.00
2024-02-10T08:45:50.268Z,100.00
2024-02-10T08:50:03.676Z,100.00
2024-02-10T08:54:16.578Z,100.00
2024-02-10T08:58:29.163Z,100.00
2024-02-10T09:02:41.746Z,100.00
2024-02-10T09:06:54.302Z,100.00
2024-02-10T09:11:07.016Z,100.00
2024-02-10T09:15:19.613Z,100.00
2024-02-10T09:19:37.214Z,100.00
2024-02-10T09:23:49.900Z,100.00
2024-02-10T09:28:02.807Z,100.00
2024-02-10T09:32:16.506Z,100.00
2024-02-10T09:36:33.417Z,100.00
2024-02-10T09:40:47.908Z,100.00
2024-02-10T09:45:00.567Z,100.00
2024-02-10T09:49:15.694Z,100.00
2024-02-10T09:53:28.274Z,100.00
2024-02-10T09:57:43.780Z,100.00
2024-02-10T10:01:58.215Z,100.00
2024-02-10T10:06:12.168Z,100.00
2024-02-10T10:10:24.737Z,100.00
2024-02-10T10:14:40.737Z,100.00
2024-02-10T10:18:54.868Z,100.00
2024-02-10T10:23:09.382Z,100.00
2024-02-10T10:27:24.026Z,100.00
2024-02-10T10:31:37.897Z,100.00
2024-02-10T10:35:50.907Z,100.00
2024-02-10T10:40:04.019Z,100.00
2024-02-10T10:44:16.758Z,98.18
2024-02-10T10:48:29.408Z,90.26
2024-02-10T10:52:43.163Z,91.46
2024-02-10T10:56:55.761Z,90.91
2024-02-10T11:01:13.759Z,87.56
2024-02-10T11:05:28.922Z,88.29
2024-02-10T11:09:56.238Z,88.30
2024-02-10T11:14:12.666Z,88.04
2024-02-10T11:18:25.315Z,93.44
2024-02-10T11:22:39.400Z,90.44
2024-02-10T11:26:56.067Z,91.61
2024-02-10T11:31:11.461Z,91.61
2024-02-10T11:35:24.091Z,93.93
2024-02-10T11:39:36.698Z,92.58
2024-02-10T11:43:52.470Z,94.25
2024-02-10T11:48:05.425Z,93.16
2024-02-10T11:52:18.244Z,92.54
2024-02-10T11:56:35.442Z,96.41
2024-02-10T12:00:48.426Z,93.21
2024-02-10T12:05:01.212Z,95.85
2024-02-10T12:09:13.949Z,93.19
2024-02-10T12:13:28.979Z,91.37
2024-02-10T12:17:41.664Z,90.11
2024-02-10T12:21:54.300Z,91.72
2024-02-10T12:26:06.831Z,90.95
2024-02-10T12:30:20.961Z,90.94
2024-02-10T12:34:33.836Z,91.02
2024-02-10T12:38:46.645Z,91.34
2024-02-10T12:42:59.133Z,91.99
2024-02-10T12:47:13.685Z,91.53
2024-02-10T12:51:27.090Z,92.62
2024-02-10T12:55:40.254Z,90.51
2024-02-10T12:59:55.443Z,93.51
2024-02-10T13:04:07.963Z,91.67
2024-02-10T13:08:20.472Z,89.23
2024-02-10T13:12:34.158Z,84.15
2024-02-10T13:16:46.820Z,81.48
2024-02-10T13:21:00.534Z,82.65
2024-02-10T13:25:13.456Z,81.79
2024-02-10T13:29:26.722Z,80.79
2024-02-10T13:33:42.698Z,80.81
2024-02-10T13:38:14.264Z,80.86
2024-02-10T13:42:45.203Z,78.70
2024-02-10T13:47:16.392Z,76.31
2024-02-10T13:51:48.245Z,75.73
2024-02-10T13:56:19.177Z,78.53
2024-02-10T14:00:32.860Z,77.42
2024-02-10T14:04:49.742Z,76.70
2024-02-10T14:09:06.175Z,73.16
2024-02-10T14:13:26.701Z,73.51
2024-02-10T14:17:40.247Z,70.00
2024-02-10T14:21:54.963Z,68.06
2024-02-10T14:26:14.452Z,68.23
2024-02-10T14:30:40.026Z,66.53
2024-02-10T14:35:20.890Z,66.25
2024-02-10T14:39:35.777Z,63.70
2024-02-10T14:43:48.387Z,65.62
2024-02-10T14:48:00.957Z,64.16
2024-02-10T14:52:15.216Z,63.42
2024-02-10T14:56:32.905Z,62.09
2024-02-10T15:00:51.762Z,62.66
2024-02-10T15:05:04.757Z,62.40
2024-02-10T15:09:19.390Z,61.70
2024-02-10T15:13:31.916Z,62.18
2024-02-10T15:17:46.830Z,62.43
2024-02-10T15:22:00.646Z,63.13
2024-02-10T15:26:14.520Z,62.75
2024-02-10T15:30:27.133Z,62.10
2024-02-10T15:34:48.118Z,61.49
2024-02-10T15:39:07.894Z,62.54
2024-02-10T15:43:23.161Z,63.37
2024-02-10T15:47:35.751Z,65.29
2024-02-10T15:51:48.302Z,65.67
2024-02-10T15:56:00.802Z,66.37
2024-02-10T16:00:16.939Z,66.87
2024-02-10T16:04:29.835Z,67.48
2024-02-10T16:08:51.262Z,68.72
2024-02-10T16:13:03.793Z,69.52
2024-02-10T16:17:16.701Z,70.56
2024-02-10T16:21:30.899Z,70.83
2024-02-10T16:25:45.357Z,72.43
2024-02-10T16:30:02.493Z,73.16
2024-02-10T16:34:15.206Z,73.84
2024-02-10T16:38:27.791Z,75.81
2024-02-10T16:42:40.285Z,76.90
2024-02-10T16:46:53.382Z,77.59
2024-02-10T16:51:06.773Z,77.89
2024-02-10T16:55:19.989Z,78.96
2024-02-10T16:59:32.543Z,77.91
2024-02-10T17:03:45.374Z,79.41
2024-02-10T17:08:06.684Z,81.27
2024-02-10T17:12:20.694Z,83.19
2024-02-10T17:16:33.533Z,84.82
2024-02-10T17:20:48.559Z,86.53
2024-02-10T17:25:01.138Z,87.71
2024-02-10T17:29:13.775Z,89.30
2024-02-10T17:33:26.575Z,90.93
2024-02-10T17:37:41.673Z,91.84
2024-02-10T17:41:54.190Z,94.61
2024-02-10T17:46:06.741Z,94.40
2024-02-10T17:50:26.729Z,93.66
2024-02-10T17:54:39.238Z,95.45
2024-02-10T17:58:52.748Z,96.95
2024-02-10T18:03:05.362Z,98.80
2024-02-10T18:07:18.073Z,100.00
2024-02-10T18:11:30.551Z,100.00
2024-02-10T18:15:43.386Z,100.00
2024-02-10T18:19:56.865Z,100.00
2024-02-10T18:24:10.971Z,100.00
2024-02-10T18:28:23.978Z,100.00
2024-02-10T18:32:37.049Z,100.00
2024-02-10T18:36:50.402Z,100.00
2024-02-10T18:41:02.984Z,100.00
2024-02-10T18:45:16.291Z,100.00
2024-02-10T18:49:29.562Z,100.00
2024-02-10T18:53:42.097Z,100.00
2024-02-10T18:57:54.662Z,100.00
2024-02-10T19:02:08.326Z,100.00
2024-02-10T19:06:24.184Z,100.00
2024-02-10T19:10:37.596Z,100.00
2024-02-10T19:14:50.223Z,100.00
2024-02-10T19:19:02.886Z,100.00
2024-02-10T19:23:15.646Z,100.00
2024-02-10T19:27:28.157Z,100.00
2024-02-10T19:31:42.012Z,100.00
2024-02-10T19:35:55.115Z,100.00
2024-02-10T19:40:09.091Z,100.00
2024-02-10T19:44:23.993Z,100.00
2024-02-10T19:48:36.624Z,100.00
2024-02-10T19:52:49.340Z,100.00
2024-02-10T19:57:02.986Z,100.00
2024-02-10T20:01:15.467Z,100.00
2024-02-10T20:05:28.664Z,100.00
2024-02-10T20:09:41.325Z,100.00
2024-02-10T20:13:54.531Z,100.00
2024-02-10T20:18:07.244Z,100.00
2024-02-10T20:22:20.364Z,100.00
2024-02-10T20:26:32.958Z,100.00
2024-02-10T20:30:46.562Z,100.00
2024-02-10T20:34:59.878Z,100.00
2024-02-10T20:39:15.970Z,100.00
2024-02-10T20:43:28.509Z,100.00
2024-02-10T20:47:41.564Z,100.00
2024-02-10T20:51:56.730Z,100.00
2024-02-10T20:56:14.470Z,100.00
2024-02-10T21:00:27.375Z,100.00
2024-02-10T21:04:39.910Z,100.00
2024-02-10T21:08:52.410Z,100.00
2024-02-10T21:13:05.070Z,100.00
2024-02-10T21:17:17.588Z,100.00
2024-02-10T21:21:30.200Z,100.00
2024-02-10T21:25:45.172Z,100.00
2024-02-10T21:29:58.930Z,100.00
2024-02-10T21:34:12.064Z,100.00
2024-02-10T21:38:24.600Z,100.00
2024-02-10T21:42:38.122Z,100.00
2024-02-10T21:46:52.498Z,100.00
2024-02-10T21:51:05.213Z,100.00
2024-02-10T21:55:17.805Z,100.00
2024-02-10T21:59:30.315Z,100.00
2024-02-10T22:03:43.182Z,100.00
2024-02-10T22:07:55.840Z,100.00
2024-02-10T22:12:09.706Z,100.00
2024-02-10T22:16:23.079Z,100.00
2024-02-10T22:20:36.156Z,100.00
2024-02-10T22:24:48.652Z,100.00
2024-02-10T22:29:01.203Z,100.00
2024-02-10T22:33:14.586Z,100.00
2024-02-10T22:37:27.193Z,100.00
2024-02-10T22:41:42.790Z,100.00
2024-02-10T22:45:55.471Z,100.00
2024-02-10T22:50:08.132Z,100.00
2024-02-10T22:54:20.682Z,100.00
2024-02-10T22:58:33.177Z,100.00
2024-02-10T23:02:47.090Z,100.00
2024-02-10T23:07:00.588Z,100.00
2024-02-10T23:11:13.065Z,100.00
2024-02-10T23:15:25.939Z,100.00
2024-02-10T23:19:44.180Z,100.00
2024-02-10T23:24:00.688Z,100.00
2024-02-10T23:28:17.256Z,100.00
2024-02-10T23:32:32.844Z,100.00
2024-02-10T23:36:50.567Z,100.00
2024-02-10T23:41:05.857Z,100.00
2024-02-10T23:45:19.098Z,100.00
2024-02-10T23:49:38.044Z,100.00
2024-02-10T23:53:51.946Z,100.00
2024-02-10T23:58:06.494Z,100.00
